Time;durP1;ratioP1;P1;durP2;ratioP2;P2;SDS_P1;SDS_P2;PMS_P1;PMS_P2;Temp;Humidity;BMP_temperature;BMP_pressure;BME280_temperature;BME280_humidity;BME280_pressure;Samples;Min_cycle;Max_cycle;Signal;HPM_P1;HPM_P2
2023/05/17 00:02:12;;;;;;;22.52;4.97;;;;;;;;;;6161608;23;20470;-86
2023/05/17 00:04:38;;;;;;;24.17;5.57;;;;;;;;;;6161891;23;20021;-86
2023/05/17 00:07:04;;;;;;;24.35;5.22;;;;;;;;;;6187547;23;20017;-85
2023/05/17 00:09:30;;;;;;;23.92;5.13;;;;;;;;;;6161944;23;20009;-86
2023/05/17 00:11:56;;;;;;;27.02;5.60;;;;;;;;;;6161891;23;20064;-86
2023/05/17 00:14:22;;;;;;;23.90;5.13;;;;;;;;;;6161298;23;20021;-86
2023/05/17 00:16:49;;;;;;;26.40;5.28;;;;;;;;;;6188050;23;20071;-85
2023/05/17 00:19:15;;;;;;;19.15;5.05;;;;;;;;;;6188113;23;20017;-85
2023/05/17 00:21:41;;;;;;;29.52;6.32;;;;;;;;;;6187103;23;20009;-86
2023/05/17 00:24:08;;;;;;;27.65;6.18;;;;;;;;;;6187623;23;20487;-85
2023/05/17 00:26:34;;;;;;;20.90;4.75;;;;;;;;;;6161266;23;20013;-85
2023/05/17 00:29:00;;;;;;;23.88;5.47;;;;;;;;;;6188676;23;20032;-86
2023/05/17 00:31:26;;;;;;;31.00;6.15;;;;;;;;;;6160140;23;20017;-86
2023/05/17 00:33:52;;;;;;;25.92;5.82;;;;;;;;;;6136468;23;20019;-85
2023/05/17 00:36:18;;;;;;;20.20;5.13;;;;;;;;;;6161820;23;20009;-86
2023/05/17 00:38:44;;;;;;;31.85;6.35;;;;;;;;;;6161520;23;20440;-85
2023/05/17 00:41:11;;;;;;;24.58;6.35;;;;;;;;;;6160044;23;20020;-85
2023/05/17 00:43:37;;;;;;;27.90;5.90;;;;;;;;;;6136660;23;20013;-86
2023/05/17 00:46:03;;;;;;;21.35;4.75;;;;;;;;;;6161639;23;20039;-86
2023/05/17 00:48:29;;;;;;;27.95;4.75;;;;;;;;;;6161711;23;20510;-84
2023/05/17 00:50:56;;;;;;;19.75;5.03;;;;;;;;;;6137178;23;20017;-86
2023/05/17 00:53:22;;;;;;;26.33;4.88;;;;;;;;;;6160891;23;20013;-86
2023/05/17 00:55:48;;;;;;;25.45;5.55;;;;;;;;;;6136651;23;20024;-86
2023/05/17 00:58:14;;;;;;;24.25;4.88;;;;;;;;;;6161542;23;20020;-86
2023/05/17 01:00:41;;;;;;;20.92;5.78;;;;;;;;;;6135478;23;20021;-85
2023/05/17 01:03:07;;;;;;;27.35;5.97;;;;;;;;;;6159907;23;20067;-86
2023/05/17 01:05:33;;;;;;;20.70;4.95;;;;;;;;;;6188001;23;20089;-85
2023/05/17 01:07:59;;;;;;;27.75;5.88;;;;;;;;;;6161198;23;20112;-85
2023/05/17 01:10:49;;;;;;;25.27;5.68;;;;;;;;;;6160882;23;20021;-86
2023/05/17 01:13:19;;;;;;;23.40;5.45;;;;;;;;;;6160783;23;20092;-86
2023/05/17 01:15:49;;;;;;;26.55;5.50;;;;;;;;;;6186838;23;20009;-86
2023/05/17 01:18:34;;;;;;;23.63;5.53;;;;;;;;;;6161317;23;20016;-86
2023/05/17 01:21:01;;;;;;;23.80;5.68;;;;;;;;;;6161070;23;20040;-86
2023/05/17 01:23:33;;;;;;;23.00;5.72;;;;;;;;;;6137208;23;20321;-85
2023/05/17 01:26:02;;;;;;;30.27;5.78;;;;;;;;;;6136671;23;20048;-85
2023/05/17 01:28:30;;;;;;;24.98;5.85;;;;;;;;;;6161259;23;20012;-85
2023/05/17 01:30:57;;;;;;;27.77;5.72;;;;;;;;;;6136236;23;20148;-86
2023/05/17 01:33:23;;;;;;;20.98;5.65;;;;;;;;;;6161332;23;20076;-86
2023/05/17 01:35:49;;;;;;;24.50;5.55;;;;;;;;;;6137255;23;20036;-85
2023/05/17 01:38:15;;;;;;;28.35;5.45;;;;;;;;;;6162508;23;20020;-86
2023/05/17 01:40:56;;;;;;;20.38;4.85;;;;;;;;;;6161072;23;20013;-85
2023/05/17 01:43:24;;;;;;;25.50;5.32;;;;;;;;;;6161945;23;20043;-86
2023/05/17 01:45:57;;;;;;;23.10;5.28;;;;;;;;;;6161488;23;20017;-86
2023/05/17 01:48:45;;;;;;;35.00;6.55;;;;;;;;;;6137121;23;20443;-86
2023/05/17 01:51:16;;;;;;;27.50;5.18;;;;;;;;;;6136874;23;20312;-86
2023/05/17 01:53:45;;;;;;;21.55;4.80;;;;;;;;;;6188616;23;20087;-85
2023/05/17 01:56:19;;;;;;;21.70;5.03;;;;;;;;;;6187797;23;20010;-86
2023/05/17 01:58:46;;;;;;;25.95;5.35;;;;;;;;;;6161645;23;20063;-86
2023/05/17 02:01:14;;;;;;;26.85;5.80;;;;;;;;;;6160777;23;20020;-85
2023/05/17 02:03:40;;;;;;;24.60;5.32;;;;;;;;;;6161865;23;20021;-85
2023/05/17 02:06:06;;;;;;;24.40;5.03;;;;;;;;;;6137880;23;20013;-86
2023/05/17 02:08:32;;;;;;;25.35;5.38;;;;;;;;;;6161519;23;20009;-87
2023/05/17 02:10:58;;;;;;;21.25;4.63;;;;;;;;;;6134304;23;20075;-85
2023/05/17 02:13:24;;;;;;;23.60;4.93;;;;;;;;;;6160525;23;20465;-86
2023/05/17 02:15:50;;;;;;;24.02;5.70;;;;;;;;;;6136435;23;20044;-86
2023/05/17 02:18:16;;;;;;;25.98;5.25;;;;;;;;;;6186633;23;20080;-86
2023/05/17 02:20:42;;;;;;;23.55;4.97;;;;;;;;;;6135748;23;20040;-85
2023/05/17 02:23:08;;;;;;;21.02;4.88;;;;;;;;;;6159264;23;20352;-85
2023/05/17 02:25:34;;;;;;;22.05;5.53;;;;;;;;;;6185918;23;20012;-86
2023/05/17 02:28:00;;;;;;;20.52;5.40;;;;;;;;;;6186725;23;20037;-85
2023/05/17 02:30:26;;;;;;;24.13;4.55;;;;;;;;;;6161149;23;20075;-85
2023/05/17 02:32:52;;;;;;;20.58;4.57;;;;;;;;;;6159900;23;20009;-86
2023/05/17 02:35:18;;;;;;;17.95;4.95;;;;;;;;;;6136107;23;20009;-86
2023/05/17 02:37:44;;;;;;;19.83;4.07;;;;;;;;;;6159640;23;20059;-84
2023/05/17 02:40:11;;;;;;;20.98;5.28;;;;;;;;;;6135322;23;20013;-86
2023/05/17 02:42:37;;;;;;;21.13;4.95;;;;;;;;;;6158743;23;20044;-86
2023/05/17 02:45:03;;;;;;;21.13;4.45;;;;;;;;;;6159792;23;20013;-85
2023/05/17 02:47:29;;;;;;;17.90;4.32;;;;;;;;;;6159442;23;20107;-85
2023/05/17 02:49:55;;;;;;;19.85;4.85;;;;;;;;;;6159778;23;20089;-85
2023/05/17 02:52:21;;;;;;;16.63;3.85;;;;;;;;;;6185873;23;20013;-86
2023/05/17 02:54:47;;;;;;;21.02;4.57;;;;;;;;;;6134826;23;20131;-85
2023/05/17 02:57:13;;;;;;;18.92;4.45;;;;;;;;;;6134759;23;20024;-86
2023/05/17 02:59:39;;;;;;;19.92;4.07;;;;;;;;;;6160643;23;20013;-86
2023/05/17 03:02:05;;;;;;;20.17;4.10;;;;;;;;;;6186344;23;20051;-85
2023/05/17 03:04:32;;;;;;;16.80;3.92;;;;;;;;;;6186372;23;20012;-85
2023/05/17 03:06:58;;;;;;;16.55;4.85;;;;;;;;;;6186068;23;20385;-86
2023/05/17 03:09:24;;;;;;;20.75;4.30;;;;;;;;;;6135326;23;20087;-86
2023/05/17 03:11:50;;;;;;;15.40;4.03;;;;;;;;;;6134885;23;20017;-86
2023/05/17 03:14:16;;;;;;;20.70;4.72;;;;;;;;;;6160263;23;20090;-86
2023/05/17 03:16:42;;;;;;;19.83;4.85;;;;;;;;;;6159842;23;20328;-87
2023/05/17 03:19:08;;;;;;;17.38;4.05;;;;;;;;;;6136222;23;20019;-84
2023/05/17 03:21:34;;;;;;;22.38;4.43;;;;;;;;;;6134675;23;20028;-86
2023/05/17 03:24:00;;;;;;;21.83;4.47;;;;;;;;;;6159627;23;20013;-86
2023/05/17 03:26:27;;;;;;;16.67;4.13;;;;;;;;;;6134856;23;20079;-85
2023/05/17 03:28:53;;;;;;;21.67;4.72;;;;;;;;;;6186294;23;20013;-85
2023/05/17 03:31:19;;;;;;;19.13;4.30;;;;;;;;;;6160114;23;20017;-86
2023/05/17 03:33:45;;;;;;;17.17;3.90;;;;;;;;;;6159788;23;20507;-86
2023/05/17 03:36:11;;;;;;;14.90;3.75;;;;;;;;;;6186090;23;20024;-84
2023/05/17 03:38:37;;;;;;;16.98;4.35;;;;;;;;;;6159914;23;20100;-86
2023/05/17 03:41:03;;;;;;;14.07;3.80;;;;;;;;;;6185909;23;20013;-86
2023/05/17 03:43:29;;;;;;;17.25;3.65;;;;;;;;;;6160873;23;20032;-86
2023/05/17 03:45:55;;;;;;;15.50;3.83;;;;;;;;;;6135165;23;20017;-86
2023/05/17 03:48:21;;;;;;;14.30;3.15;;;;;;;;;;6159388;23;20017;-86
2023/05/17 03:50:47;;;;;;;13.77;3.00;;;;;;;;;;6158767;23;20068;-86
2023/05/17 03:53:13;;;;;;;19.27;3.78;;;;;;;;;;6135256;23;20013;-85
2023/05/17 03:55:39;;;;;;;16.20;3.75;;;;;;;;;;6158954;23;20020;-85
2023/05/17 03:58:06;;;;;;;21.25;3.75;;;;;;;;;;6134064;23;20032;-85
2023/05/17 04:00:32;;;;;;;16.05;3.42;;;;;;;;;;6158089;23;20013;-86
2023/05/17 04:02:59;;;;;;;14.95;3.67;;;;;;;;;;6158828;23;20048;-85
2023/05/17 04:05:25;;;;;;;15.70;3.38;;;;;;;;;;6159638;23;20017;-84
2023/05/17 04:07:51;;;;;;;21.23;3.55;;;;;;;;;;6159324;23;20044;-86
2023/05/17 04:10:17;;;;;;;13.90;3.60;;;;;;;;;;6135856;23;20009;-85
2023/05/17 04:12:43;;;;;;;16.85;3.38;;;;;;;;;;6136368;23;20009;-86
2023/05/17 04:15:09;;;;;;;13.65;3.45;;;;;;;;;;6159415;23;20406;-87
2023/05/17 04:17:35;;;;;;;15.70;3.05;;;;;;;;;;6134975;23;20108;-87
2023/05/17 04:20:02;;;;;;;13.73;3.00;;;;;;;;;;6159602;23;20021;-86
2023/05/17 04:22:29;;;;;;;15.45;2.88;;;;;;;;;;6135058;23;20222;-86
2023/05/17 04:24:55;;;;;;;14.82;2.83;;;;;;;;;;6159584;23;20076;-87
2023/05/17 04:27:21;;;;;;;11.63;2.63;;;;;;;;;;6186380;23;20017;-84
2023/05/17 04:29:47;;;;;;;15.90;3.38;;;;;;;;;;6160430;23;20024;-85
2023/05/17 04:32:13;;;;;;;9.32;2.67;;;;;;;;;;6134836;23;20017;-85
2023/05/17 04:34:39;;;;;;;12.13;2.78;;;;;;;;;;6135237;23;20017;-85
2023/05/17 04:37:06;;;;;;;11.38;2.30;;;;;;;;;;6160724;23;20107;-85
2023/05/17 04:39:32;;;;;;;15.98;2.63;;;;;;;;;;6134740;23;20046;-85
2023/05/17 04:41:58;;;;;;;13.73;2.47;;;;;;;;;;6160549;23;20017;-86
2023/05/17 04:44:24;;;;;;;13.88;3.10;;;;;;;;;;6134263;23;20051;-85
2023/05/17 04:46:50;;;;;;;14.20;3.10;;;;;;;;;;6159844;23;20036;-85
2023/05/17 04:49:17;;;;;;;12.82;2.92;;;;;;;;;;6160724;23;20087;-85
2023/05/17 04:51:43;;;;;;;16.17;3.03;;;;;;;;;;6160134;23;20013;-85
2023/05/17 04:54:09;;;;;;;10.93;2.70;;;;;;;;;;6186325;23;20055;-85
2023/05/17 04:56:35;;;;;;;9.93;2.42;;;;;;;;;;6187510;23;20013;-85
2023/05/17 04:59:02;;;;;;;12.93;2.60;;;;;;;;;;6186542;23;20020;-85
2023/05/17 05:01:29;;;;;;;15.35;2.40;;;;;;;;;;6135449;23;20066;-80
2023/05/17 05:03:56;;;;;;;14.40;2.95;;;;;;;;;;6157644;23;20063;-81
2023/05/17 05:06:22;;;;;;;10.57;2.30;;;;;;;;;;6184175;23;20052;-84
2023/05/17 05:08:48;;;;;;;13.60;2.45;;;;;;;;;;6161024;23;20024;-87
2023/05/17 05:11:14;;;;;;;10.07;2.55;;;;;;;;;;6188698;23;20325;-86
2023/05/17 05:13:41;;;;;;;8.77;2.25;;;;;;;;;;6188979;23;20017;-86
2023/05/17 05:16:07;;;;;;;11.70;2.65;;;;;;;;;;6140119;23;20045;-86
2023/05/17 05:18:33;;;;;;;16.55;2.92;;;;;;;;;;6165913;23;20095;-86
2023/05/17 05:20:59;;;;;;;13.85;2.85;;;;;;;;;;6139788;23;20526;-86
2023/05/17 05:23:25;;;;;;;15.05;3.15;;;;;;;;;;6190614;23;20021;-86
2023/05/17 05:25:52;;;;;;;10.68;2.60;;;;;;;;;;6139460;23;20083;-86
2023/05/17 05:28:18;;;;;;;11.43;3.00;;;;;;;;;;6163165;23;20103;-86
2023/05/17 05:30:44;;;;;;;11.82;2.60;;;;;;;;;;6188798;23;20013;-85
2023/05/17 05:33:10;;;;;;;16.85;2.83;;;;;;;;;;6163148;23;20013;-85
2023/05/17 05:35:36;;;;;;;11.32;2.20;;;;;;;;;;6190575;23;20088;-86
2023/05/17 05:38:02;;;;;;;14.35;2.97;;;;;;;;;;6161592;23;20067;-86
2023/05/17 05:40:28;;;;;;;10.93;2.80;;;;;;;;;;6132515;23;20020;-86
2023/05/17 05:42:55;;;;;;;11.48;2.95;;;;;;;;;;6132273;23;20103;-86
2023/05/17 05:45:21;;;;;;;14.18;3.38;;;;;;;;;;6156783;23;20120;-87
2023/05/17 05:47:47;;;;;;;10.15;2.60;;;;;;;;;;6157125;23;20049;-86
2023/05/17 05:50:13;;;;;;;12.95;2.58;;;;;;;;;;6156730;23;20020;-86
2023/05/17 05:52:39;;;;;;;9.57;2.42;;;;;;;;;;6183657;23;20352;-86
2023/05/17 05:55:05;;;;;;;12.18;2.47;;;;;;;;;;6157406;23;20085;-87
2023/05/17 05:57:31;;;;;;;14.65;3.47;;;;;;;;;;6183368;23;20479;-87
2023/05/17 05:59:57;;;;;;;12.82;3.03;;;;;;;;;;6156630;23;20332;-87
2023/05/17 06:02:23;;;;;;;10.77;2.40;;;;;;;;;;6157561;23;20017;-87
2023/05/17 06:04:49;;;;;;;14.25;2.13;;;;;;;;;;6131609;23;20017;-87
2023/05/17 06:07:15;;;;;;;12.80;3.20;;;;;;;;;;6157004;23;20013;-86
2023/05/17 06:09:41;;;;;;;12.40;3.08;;;;;;;;;;6132339;23;20060;-87
2023/05/17 06:12:08;;;;;;;16.80;3.70;;;;;;;;;;6156817;23;20013;-87
2023/05/17 06:14:36;;;;;;;15.15;4.68;;;;;;;;;;6132804;23;20013;-86
2023/05/17 06:17:02;;;;;;;13.98;2.85;;;;;;;;;;6156583;23;20021;-87
2023/05/17 06:19:28;;;;;;;12.02;2.40;;;;;;;;;;6131859;23;20020;-87
2023/05/17 06:21:54;;;;;;;15.63;3.45;;;;;;;;;;6156714;23;20444;-86
2023/05/17 06:24:20;;;;;;;14.57;3.72;;;;;;;;;;6157208;23;20013;-87
2023/05/17 06:26:46;;;;;;;11.85;3.20;;;;;;;;;;6157195;23;20344;-87
2023/05/17 06:29:12;;;;;;;15.38;2.90;;;;;;;;;;6156533;23;20017;-86
2023/05/17 06:31:38;;;;;;;12.18;2.65;;;;;;;;;;6183332;23;20700;-87
2023/05/17 06:34:04;;;;;;;18.83;3.60;;;;;;;;;;6131754;23;20009;-87
2023/05/17 06:36:30;;;;;;;11.50;3.22;;;;;;;;;;6157028;23;20016;-87
2023/05/17 06:38:56;;;;;;;17.10;3.35;;;;;;;;;;6132280;23;20096;-87
2023/05/17 06:41:22;;;;;;;16.73;3.80;;;;;;;;;;6183330;23;20027;-87
2023/05/17 06:43:48;;;;;;;15.55;3.10;;;;;;;;;;6131959;23;20013;-86
2023/05/17 06:46:14;;;;;;;15.13;3.40;;;;;;;;;;6183164;23;20017;-86
2023/05/17 06:48:40;;;;;;;15.93;3.55;;;;;;;;;;6182491;23;20013;-86
2023/05/17 06:51:06;;;;;;;18.05;3.78;;;;;;;;;;6183147;23;20067;-86
2023/05/17 06:53:32;;;;;;;14.13;3.88;;;;;;;;;;6156989;23;20016;-86
2023/05/17 06:55:58;;;;;;;15.82;3.67;;;;;;;;;;6131655;23;20067;-86
2023/05/17 06:58:24;;;;;;;16.35;3.85;;;;;;;;;;6156789;23;20009;-86
2023/05/17 07:00:50;;;;;;;16.23;3.80;;;;;;;;;;6131899;23;20491;-86
2023/05/17 07:03:16;;;;;;;17.60;3.90;;;;;;;;;;6155843;23;20019;-86
2023/05/17 07:05:42;;;;;;;15.57;3.92;;;;;;;;;;6157142;23;20128;-86
2023/05/17 07:08:08;;;;;;;16.33;3.65;;;;;;;;;;6156202;23;20402;-86
2023/05/17 07:10:34;;;;;;;18.80;3.58;;;;;;;;;;6156312;23;20056;-86
2023/05/17 07:13:00;;;;;;;14.75;3.53;;;;;;;;;;6131740;23;20052;-86
2023/05/17 07:15:26;;;;;;;19.10;4.03;;;;;;;;;;6156273;23;20009;-86
2023/05/17 07:17:52;;;;;;;22.75;5.47;;;;;;;;;;6154563;23;20013;-86
2023/05/17 07:20:18;;;;;;;17.15;4.32;;;;;;;;;;6155098;23;20501;-87
2023/05/17 07:22:44;;;;;;;16.52;3.97;;;;;;;;;;6155553;23;20127;-87
2023/05/17 07:25:10;;;;;;;15.90;3.85;;;;;;;;;;6155187;23;20045;-86
2023/05/17 07:27:36;;;;;;;14.18;3.72;;;;;;;;;;6155666;23;20056;-87
2023/05/17 07:30:03;;;;;;;17.58;4.38;;;;;;;;;;6155085;23;20571;-87
2023/05/17 07:32:32;;;;;;;21.23;4.03;;;;;;;;;;6154420;23;20021;-86
2023/05/17 07:34:58;;;;;;;17.20;3.60;;;;;;;;;;6155066;23;20036;-87
2023/05/17 07:37:24;;;;;;;16.65;4.15;;;;;;;;;;6155285;23;20009;-87
2023/05/17 07:39:50;;;;;;;18.00;3.47;;;;;;;;;;6155520;23;20017;-87
2023/05/17 07:42:16;;;;;;;19.27;4.20;;;;;;;;;;6181806;23;20020;-87
2023/05/17 07:44:42;;;;;;;22.98;4.55;;;;;;;;;;6155124;23;20349;-86
2023/05/17 07:47:08;;;;;;;13.88;3.28;;;;;;;;;;6155002;23;20480;-86
2023/05/17 07:49:34;;;;;;;13.90;3.13;;;;;;;;;;6130353;23;20048;-86
2023/05/17 07:52:01;;;;;;;15.95;3.28;;;;;;;;;;6181560;23;20032;-86
2023/05/17 07:54:27;;;;;;;14.95;3.20;;;;;;;;;;6130390;23;20147;-87
2023/05/17 07:56:54;;;;;;;20.02;3.80;;;;;;;;;;6155454;23;20495;-87
2023/05/17 07:59:23;;;;;;;18.50;4.03;;;;;;;;;;6181342;23;20009;-86
2023/05/17 08:01:49;;;;;;;25.25;3.83;;;;;;;;;;6154727;23;20091;-87
2023/05/17 08:04:16;;;;;;;16.20;3.35;;;;;;;;;;6130347;23;20087;-86
2023/05/17 08:06:44;;;;;;;18.90;3.65;;;;;;;;;;6154881;23;20009;-87
2023/05/17 08:09:10;;;;;;;16.65;3.85;;;;;;;;;;6155278;23;20013;-86
2023/05/17 08:11:36;;;;;;;15.02;3.20;;;;;;;;;;6156217;23;20059;-87
2023/05/17 08:14:02;;;;;;;22.42;3.75;;;;;;;;;;6131720;23;20021;-86
2023/05/17 08:16:28;;;;;;;17.92;3.75;;;;;;;;;;6109251;23;1110039;-86
2023/05/17 08:18:54;;;;;;;19.48;3.63;;;;;;;;;;6158062;23;20096;-87
2023/05/17 08:21:21;;;;;;;16.38;3.70;;;;;;;;;;6158143;23;20025;-87
2023/05/17 08:23:47;;;;;;;12.98;3.47;;;;;;;;;;6158974;23;20051;-87
2023/05/17 08:26:13;;;;;;;12.48;3.05;;;;;;;;;;6184765;23;20013;-87
2023/05/17 08:28:40;;;;;;;20.33;3.70;;;;;;;;;;6159846;23;20049;-86
2023/05/17 08:31:06;;;;;;;11.90;3.08;;;;;;;;;;6137522;23;20069;-86
2023/05/17 08:33:32;;;;;;;14.50;3.10;;;;;;;;;;6163615;23;20013;-85
2023/05/17 08:36:00;;;;;;;13.15;3.22;;;;;;;;;;6165558;23;20408;-86
2023/05/17 08:38:26;;;;;;;17.15;3.78;;;;;;;;;;6137638;23;20464;-85
2023/05/17 08:40:53;;;;;;;14.40;3.05;;;;;;;;;;6137957;23;20092;-84
2023/05/17 08:43:20;;;;;;;15.95;3.45;;;;;;;;;;6163471;23;20013;-86
2023/05/17 08:45:48;;;;;;;15.85;3.55;;;;;;;;;;6163315;23;20016;-86
2023/05/17 08:48:16;;;;;;;14.25;2.90;;;;;;;;;;6162850;23;20024;-85
2023/05/17 08:50:42;;;;;;;11.90;2.97;;;;;;;;;;6162713;23;20082;-85
2023/05/17 08:53:09;;;;;;;10.98;2.72;;;;;;;;;;6138928;23;20009;-86
2023/05/17 08:55:36;;;;;;;16.70;3.00;;;;;;;;;;6164674;23;20023;-86
2023/05/17 08:58:03;;;;;;;8.77;2.50;;;;;;;;;;6138000;23;20009;-85
2023/05/17 09:00:31;;;;;;;9.43;2.40;;;;;;;;;;6163123;23;20019;-84
2023/05/17 09:02:57;;;;;;;11.88;2.90;;;;;;;;;;6190206;23;20337;-86
2023/05/17 09:05:24;;;;;;;13.52;2.78;;;;;;;;;;6137864;23;20040;-85
2023/05/17 09:07:51;;;;;;;9.07;2.88;;;;;;;;;;6162202;23;20436;-86
2023/05/17 09:10:17;;;;;;;10.35;2.70;;;;;;;;;;6162620;23;20040;-86
2023/05/17 09:12:44;;;;;;;8.82;2.70;;;;;;;;;;6163073;23;20111;-87
2023/05/17 09:15:16;;;;;;;12.13;2.33;;;;;;;;;;6161986;23;20028;-86
2023/05/17 09:17:42;;;;;;;10.35;2.70;;;;;;;;;;6163843;23;20490;-86
2023/05/17 09:20:09;;;;;;;11.15;2.40;;;;;;;;;;6139748;23;20420;-87
2023/05/17 09:22:36;;;;;;;9.93;2.97;;;;;;;;;;6189737;23;20024;-86
2023/05/17 09:25:03;;;;;;;12.77;2.92;;;;;;;;;;6163766;23;20092;-86
2023/05/17 09:27:31;;;;;;;8.50;2.75;;;;;;;;;;6164279;23;20013;-87
2023/05/17 09:29:57;;;;;;;10.43;2.38;;;;;;;;;;6189956;23;20151;-87
2023/05/17 09:32:27;;;;;;;9.88;2.25;;;;;;;;;;6140249;23;20045;-86
2023/05/17 09:34:55;;;;;;;13.15;2.13;;;;;;;;;;6141514;23;20017;-86
2023/05/17 09:37:21;;;;;;;9.00;2.38;;;;;;;;;;6140877;23;20009;-86
2023/05/17 09:39:47;;;;;;;10.45;2.10;;;;;;;;;;6139690;23;20009;-86
2023/05/17 09:42:15;;;;;;;10.98;2.35;;;;;;;;;;6140079;23;20013;-86
2023/05/17 09:44:56;;;;;;;14.35;2.50;;;;;;;;;;6165432;23;20017;-87
2023/05/17 09:47:34;;;;;;;8.38;2.55;;;;;;;;;;6190990;23;20021;-86
2023/05/17 09:50:02;;;;;;;13.43;2.38;;;;;;;;;;6191045;23;20017;-86
2023/05/17 09:52:33;;;;;;;11.10;3.20;;;;;;;;;;6163865;23;20017;-86
2023/05/17 09:55:00;;;;;;;13.88;2.95;;;;;;;;;;6161925;23;20434;-86
2023/05/17 09:57:27;;;;;;;12.30;2.80;;;;;;;;;;6138580;23;20013;-86
2023/05/17 09:59:56;;;;;;;9.35;2.80;;;;;;;;;;6139159;23;20009;-86
2023/05/17 10:02:26;;;;;;;11.65;2.40;;;;;;;;;;6138435;23;20416;-86
2023/05/17 10:04:55;;;;;;;12.13;2.50;;;;;;;;;;6164982;23;20135;-87
2023/05/17 10:07:24;;;;;;;12.07;2.63;;;;;;;;;;6191128;23;20013;-86
2023/05/17 10:09:51;;;;;;;12.57;3.13;;;;;;;;;;6164268;23;20013;-86
2023/05/17 10:12:19;;;;;;;12.73;2.80;;;;;;;;;;6162424;23;20013;-86
2023/05/17 10:14:45;;;;;;;8.70;2.50;;;;;;;;;;6163340;23;20381;-86
2023/05/17 10:17:12;;;;;;;12.77;2.20;;;;;;;;;;6163225;23;20017;-87
2023/05/17 10:19:39;;;;;;;9.65;2.67;;;;;;;;;;6163761;23;20028;-87
2023/05/17 10:22:05;;;;;;;6.75;1.75;;;;;;;;;;6189890;23;20039;-86
2023/05/17 10:24:31;;;;;;;9.32;2.30;;;;;;;;;;6164607;23;20009;-84
2023/05/17 10:26:58;;;;;;;8.23;2.20;;;;;;;;;;6191207;23;20048;-85
2023/05/17 10:29:24;;;;;;;26.33;11.88;;;;;;;;;;6139752;23;20023;-85
2023/05/17 10:31:50;;;;;;;9.93;2.15;;;;;;;;;;6140128;23;20020;-86
2023/05/17 10:34:17;;;;;;;11.90;2.88;;;;;;;;;;6163619;23;20175;-86
2023/05/17 10:36:44;;;;;;;14.57;2.85;;;;;;;;;;6189489;23;20056;-86
2023/05/17 10:39:10;;;;;;;9.63;2.40;;;;;;;;;;6163350;23;20009;-86
2023/05/17 10:41:37;;;;;;;9.40;2.03;;;;;;;;;;6136803;23;20337;-86
2023/05/17 10:44:04;;;;;;;8.05;2.13;;;;;;;;;;6139758;23;20061;-86
2023/05/17 10:46:31;;;;;;;8.30;2.25;;;;;;;;;;6140284;23;20301;-87
2023/05/17 10:48:59;;;;;;;8.77;2.28;;;;;;;;;;6139216;23;20123;-85
2023/05/17 10:51:36;;;;;;;7.20;2.13;;;;;;;;;;6188869;23;20028;-86
2023/05/17 10:54:02;;;;;;;9.65;2.65;;;;;;;;;;6162076;23;20013;-86
2023/05/17 10:56:31;;;;;;;12.38;2.00;;;;;;;;;;6190643;23;20443;-87
2023/05/17 10:59:30;;;;;;;8.90;2.08;;;;;;;;;;6163404;23;20039;-87
2023/05/17 11:02:02;;;;;;;15.95;4.57;;;;;;;;;;6157651;23;20036;-86
2023/05/17 11:04:32;;;;;;;8.80;2.17;;;;;;;;;;6140739;23;20012;-86
2023/05/17 11:07:17;;;;;;;8.07;2.28;;;;;;;;;;6165486;23;20061;-87
2023/05/17 11:09:44;;;;;;;9.38;2.40;;;;;;;;;;6161026;23;20013;-86
2023/05/17 11:12:11;;;;;;;11.45;3.58;;;;;;;;;;6163950;23;20036;-86
2023/05/17 11:14:52;;;;;;;8.43;2.28;;;;;;;;;;6163208;23;20009;-86
2023/05/17 11:17:19;;;;;;;8.90;1.80;;;;;;;;;;6139469;23;20013;-86
2023/05/17 11:19:55;;;;;;;10.32;3.38;;;;;;;;;;6139154;23;20345;-86
2023/05/17 11:22:25;;;;;;;10.02;2.63;;;;;;;;;;6163692;23;20040;-86
2023/05/17 11:24:54;;;;;;;15.63;3.50;;;;;;;;;;6137827;23;20025;-87
2023/05/17 11:27:26;;;;;;;12.23;2.95;;;;;;;;;;6158207;23;20017;-87
2023/05/17 11:29:53;;;;;;;12.80;3.47;;;;;;;;;;6156907;23;20381;-87
2023/05/17 11:32:25;;;;;;;12.57;3.55;;;;;;;;;;6156711;23;20082;-87
2023/05/17 11:34:54;;;;;;;11.52;2.60;;;;;;;;;;6156570;23;20088;-87
2023/05/17 11:37:30;;;;;;;9.60;2.50;;;;;;;;;;6182591;23;20444;-87
2023/05/17 11:40:19;;;;;;;11.95;3.20;;;;;;;;;;6156028;23;20021;-87
2023/05/17 11:42:49;;;;;;;11.07;2.35;;;;;;;;;;6130865;23;20013;-87
2023/05/17 11:45:15;;;;;;;8.77;2.33;;;;;;;;;;6158461;23;20061;-87
2023/05/17 11:47:41;;;;;;;11.02;2.58;;;;;;;;;;6133719;23;20017;-87
2023/05/17 11:50:07;;;;;;;10.48;2.80;;;;;;;;;;6185195;23;20064;-87
2023/05/17 11:52:34;;;;;;;11.02;2.55;;;;;;;;;;6133852;23;20417;-86
2023/05/17 11:55:01;;;;;;;11.98;2.65;;;;;;;;;;6158762;23;20064;-87
2023/05/17 11:57:29;;;;;;;8.82;2.03;;;;;;;;;;6158561;23;20507;-87
2023/05/17 11:59:59;;;;;;;10.32;2.28;;;;;;;;;;6184725;23;20344;-87
2023/05/17 12:02:29;;;;;;;10.40;2.08;;;;;;;;;;6158890;23;20020;-87
2023/05/17 12:04:55;;;;;;;9.85;2.10;;;;;;;;;;6133763;23;20404;-87
2023/05/17 12:07:21;;;;;;;8.55;2.30;;;;;;;;;;6157454;23;20449;-87
2023/05/17 12:09:48;;;;;;;10.73;2.70;;;;;;;;;;6133293;23;20082;-86
2023/05/17 12:12:14;;;;;;;8.93;2.50;;;;;;;;;;6184482;23;20336;-87
2023/05/17 12:14:42;;;;;;;8.85;2.20;;;;;;;;;;6133435;23;20088;-87
2023/05/17 12:17:08;;;;;;;12.57;2.50;;;;;;;;;;6158514;23;20043;-87
2023/05/17 12:19:34;;;;;;;13.73;2.40;;;;;;;;;;6184650;23;20375;-87
2023/05/17 12:22:07;;;;;;;8.45;2.47;;;;;;;;;;6157672;23;20384;-87
2023/05/17 12:24:37;;;;;;;13.38;2.55;;;;;;;;;;6157893;23;20469;-87
2023/05/17 12:27:03;;;;;;;12.75;2.35;;;;;;;;;;6157907;23;20017;-87
2023/05/17 12:29:29;;;;;;;8.75;2.60;;;;;;;;;;6158303;23;20017;-87
2023/05/17 12:31:55;;;;;;;9.52;2.40;;;;;;;;;;6133073;23;20056;-87
2023/05/17 12:34:22;;;;;;;11.10;2.40;;;;;;;;;;6158391;23;20024;-87
2023/05/17 12:36:48;;;;;;;10.90;2.33;;;;;;;;;;6157086;23;20468;-87
2023/05/17 12:39:16;;;;;;;10.15;2.42;;;;;;;;;;6132645;23;20360;-87
2023/05/17 12:41:43;;;;;;;11.77;2.10;;;;;;;;;;6184263;23;20112;-86
2023/05/17 12:44:09;;;;;;;7.70;2.33;;;;;;;;;;6158011;23;20040;-87
2023/05/17 12:46:35;;;;;;;12.25;2.50;;;;;;;;;;6157859;23;20013;-87
2023/05/17 12:49:05;;;;;;;9.48;2.30;;;;;;;;;;6184420;23;20021;-87
2023/05/17 12:51:40;;;;;;;12.55;2.63;;;;;;;;;;6133056;23;20017;-88
2023/05/17 12:54:06;;;;;;;9.38;2.80;;;;;;;;;;6184403;23;20298;-88
2023/05/17 12:56:32;;;;;;;16.52;2.72;;;;;;;;;;6157822;23;20016;-87
2023/05/17 12:59:04;;;;;;;10.38;2.33;;;;;;;;;;6157883;23;20448;-87
2023/05/17 13:01:34;;;;;;;13.73;3.05;;;;;;;;;;6157941;23;20024;-87
2023/05/17 13:04:00;;;;;;;12.15;2.72;;;;;;;;;;6133349;23;20017;-87
2023/05/17 13:06:26;;;;;;;11.32;2.60;;;;;;;;;;6157958;23;20096;-86
2023/05/17 13:08:59;;;;;;;11.52;2.70;;;;;;;;;;6133735;23;20085;-87
2023/05/17 13:11:25;;;;;;;11.20;2.60;;;;;;;;;;6157879;23;20093;-87
2023/05/17 13:13:51;;;;;;;15.52;3.13;;;;;;;;;;6133527;23;20013;-87
2023/05/17 13:16:17;;;;;;;16.23;3.92;;;;;;;;;;6157347;23;20049;-87
2023/05/17 13:18:47;;;;;;;11.10;2.47;;;;;;;;;;6157674;23;20131;-88
2023/05/17 13:21:13;;;;;;;12.63;2.88;;;;;;;;;;6183599;23;20016;-87
2023/05/17 13:23:43;;;;;;;9.32;2.50;;;;;;;;;;6157982;23;20073;-87
2023/05/17 13:26:09;;;;;;;10.60;2.85;;;;;;;;;;6132873;23;20013;-87
2023/05/17 13:28:36;;;;;;;11.35;3.00;;;;;;;;;;6132927;23;20015;-87
2023/05/17 13:31:02;;;;;;;12.98;2.50;;;;;;;;;;6157521;23;20095;-87
2023/05/17 13:33:28;;;;;;;9.05;2.30;;;;;;;;;;6157606;23;20321;-87
2023/05/17 13:35:54;;;;;;;11.60;2.47;;;;;;;;;;6132353;23;20013;-86
2023/05/17 13:38:20;;;;;;;9.07;2.75;;;;;;;;;;6157320;23;20032;-87
2023/05/17 13:40:46;;;;;;;9.23;2.55;;;;;;;;;;6156868;23;20071;-87
2023/05/17 13:43:12;;;;;;;11.30;2.85;;;;;;;;;;6132492;23;20116;-86
2023/05/17 13:45:38;;;;;;;8.68;2.50;;;;;;;;;;6183469;23;20012;-87
2023/05/17 13:48:04;;;;;;;13.20;2.95;;;;;;;;;;6132485;23;20471;-87
2023/05/17 13:50:30;;;;;;;12.93;2.60;;;;;;;;;;6156663;23;20116;-87
2023/05/17 13:52:56;;;;;;;12.88;2.83;;;;;;;;;;6157099;23;20449;-87
2023/05/17 13:55:22;;;;;;;10.32;2.20;;;;;;;;;;6132538;23;20112;-87
2023/05/17 13:57:48;;;;;;;10.52;2.60;;;;;;;;;;6156955;23;20076;-86
2023/05/17 14:00:15;;;;;;;11.70;2.58;;;;;;;;;;6132668;23;20085;-87
2023/05/17 14:02:41;;;;;;;9.80;2.70;;;;;;;;;;6156870;23;20013;-86
2023/05/17 14:05:08;;;;;;;7.40;2.30;;;;;;;;;;6131896;23;20024;-87
2023/05/17 14:07:39;;;;;;;9.73;2.35;;;;;;;;;;6156687;23;20028;-87
2023/05/17 14:10:06;;;;;;;11.07;2.47;;;;;;;;;;6156959;23;20020;-87
2023/05/17 14:12:32;;;;;;;9.13;2.13;;;;;;;;;;6183384;23;20337;-86
2023/05/17 14:14:58;;;;;;;13.02;2.78;;;;;;;;;;6132097;23;20019;-86
2023/05/17 14:17:24;;;;;;;8.43;2.20;;;;;;;;;;6156783;23;20032;-86
2023/05/17 14:19:50;;;;;;;8.55;1.90;;;;;;;;;;6156198;23;20024;-86
2023/05/17 14:22:16;;;;;;;10.85;1.95;;;;;;;;;;6132384;23;20009;-87
2023/05/17 14:24:42;;;;;;;8.25;2.00;;;;;;;;;;6132087;23;20095;-87
2023/05/17 14:27:08;;;;;;;11.90;2.33;;;;;;;;;;6132167;23;20009;-86
2023/05/17 14:29:34;;;;;;;10.88;2.30;;;;;;;;;;6132083;23;20020;-86
2023/05/17 14:32:00;;;;;;;11.88;2.60;;;;;;;;;;6156473;23;20009;-86